createdAt,value
2022-12-25T10:00:15.463Z,6.90
2022-12-25T10:03:04.414Z,3.55
2022-12-25T10:05:52.943Z,6.32
2022-12-25T10:08:31.285Z,11.32
2022-12-25T10:11:05.774Z,3.60
2022-12-25T10:13:55.391Z,3.28
2022-12-25T10:16:31.881Z,2.58
2022-12-25T10:19:27.953Z,3.80
2022-12-25T10:32:58.898Z,1.85
2022-12-25T10:38:37.470Z,1.48
2022-12-25T10:41:32.195Z,2.67
2022-12-25T10:43:59.033Z,1.67
2022-12-25T10:46:28.526Z,1.90
2022-12-25T10:48:57.530Z,1.30
2022-12-25T10:51:32.676Z,0.93
2022-12-25T10:54:02.012Z,0.82
2022-12-25T10:56:28.708Z,2.10
2022-12-25T10:59:05.043Z,0.90
2022-12-25T11:01:32.070Z,2.33
2022-12-25T11:03:59.221Z,4.25
2022-12-25T11:06:27.946Z,2.38
2022-12-25T11:08:56.815Z,0.82
2022-12-25T11:11:26.061Z,1.88
2022-12-25T11:13:55.087Z,3.00
2022-12-25T11:18:57.772Z,2.63
2022-12-25T11:21:26.916Z,1.95
2022-12-25T11:23:58.817Z,0.80
2022-12-25T11:26:28.261Z,1.77
2022-12-25T11:32:07.004Z,1.67
2022-12-25T11:34:46.116Z,1.58
2022-12-25T11:37:22.344Z,1.10
2022-12-25T11:39:49.643Z,1.63
2022-12-25T11:42:24.519Z,1.58
2022-12-25T11:44:58.139Z,2.30
2022-12-25T11:47:31.924Z,2.63
2022-12-25T11:50:10.381Z,1.45
2022-12-25T11:52:41.035Z,2.90
2022-12-25T11:55:18.079Z,2.75
2022-12-25T12:03:31.908Z,1.35
2022-12-25T12:08:50.007Z,2.50
2022-12-25T12:11:22.682Z,1.88
2022-12-25T12:14:01.455Z,1.08
2022-12-25T12:24:41.787Z,1.60
2022-12-25T12:27:24.867Z,2.33
2022-12-25T12:30:00.920Z,2.67
2022-12-25T12:32:52.336Z,2.28
2022-12-25T12:35:22.251Z,1.83
2022-12-25T12:40:37.658Z,2.58
2022-12-25T12:49:11.812Z,3.00
2022-12-25T12:51:46.803Z,2.70
2022-12-25T12:54:23.777Z,2.85
2022-12-25T12:57:01.799Z,2.45
2022-12-25T12:59:39.973Z,2.70
2022-12-25T13:02:28.232Z,4.20
2022-12-25T13:05:07.040Z,1.88
2022-12-25T13:07:53.177Z,2.83
2022-12-25T13:10:25.572Z,2.90
2022-12-25T13:12:56.860Z,5.15
2022-12-25T13:15:28.041Z,3.35
2022-12-25T13:17:56.904Z,3.47
2022-12-25T13:20:38.806Z,4.05
2022-12-25T13:23:14.361Z,4.68
2022-12-25T13:28:14.460Z,7.07
2022-12-25T13:30:42.420Z,3.97
2022-12-25T13:33:18.877Z,4.32
2022-12-25T13:35:47.768Z,4.05
2022-12-25T13:38:17.027Z,4.40
2022-12-25T13:41:11.370Z,4.10
2022-12-25T13:43:42.474Z,3.83
2022-12-25T13:46:13.141Z,3.10
2022-12-25T13:48:40.244Z,2.78
2022-12-25T13:51:23.619Z,3.63
2022-12-25T13:53:52.075Z,4.25
2022-12-25T13:56:19.132Z,4.82
2022-12-25T13:58:47.907Z,3.22
2022-12-25T14:01:16.739Z,2.25
2022-12-25T14:03:46.346Z,4.05
2022-12-25T14:06:24.936Z,2.90
2022-12-25T14:08:56.208Z,5.38
2022-12-25T14:11:25.391Z,3.95
2022-12-25T14:16:22.857Z,2.35
2022-12-25T14:18:56.235Z,3.00
2022-12-25T14:21:29.238Z,2.65
2022-12-25T14:23:56.633Z,3.47
2022-12-25T14:26:26.151Z,3.22
2022-12-25T14:28:55.494Z,2.65
2022-12-25T14:31:25.101Z,3.88
2022-12-25T14:33:54.848Z,2.63
2022-12-25T14:36:22.018Z,3.47
2022-12-25T14:38:58.004Z,1.30
2022-12-25T14:41:34.251Z,1.50
2022-12-25T14:44:03.862Z,4.10
2022-12-25T14:46:32.613Z,2.95
2022-12-25T14:49:00.486Z,1.83
2022-12-25T14:51:29.820Z,2.05
2022-12-25T14:54:03.053Z,3.90
2022-12-25T14:56:39.756Z,1.73
2022-12-25T14:59:10.052Z,4.07
2022-12-25T15:01:40.070Z,6.82
2022-12-25T15:04:14.766Z,2.03
2022-12-25T15:06:52.459Z,2.10
2022-12-25T15:09:21.096Z,7.15
2022-12-25T15:11:49.163Z,5.30
2022-12-25T15:14:15.939Z,3.47
2022-12-25T15:16:45.775Z,3.00
2022-12-25T15:19:21.894Z,2.00
2022-12-25T15:21:52.234Z,1.95
2022-12-25T15:24:20.553Z,2.13
2022-12-25T15:26:47.367Z,2.33
2022-12-25T15:29:14.180Z,3.38
2022-12-25T15:31:42.205Z,1.63
2022-12-25T15:34:17.381Z,2.15
2022-12-25T15:36:44.210Z,1.30
2022-12-25T15:39:11.053Z,1.98
2022-12-25T15:41:58.994Z,2.13
2022-12-25T15:44:26.845Z,2.95
2022-12-25T15:46:54.754Z,2.95
2022-12-25T15:49:21.596Z,2.30
2022-12-25T15:51:48.331Z,3.28
2022-12-25T15:54:15.224Z,2.25
2022-12-25T16:00:33.633Z,4.53
2022-12-25T16:03:00.633Z,4.55
2022-12-25T16:05:27.866Z,4.50
2022-12-25T16:07:54.630Z,2.92
2022-12-25T16:10:23.023Z,4.07
2022-12-25T16:12:51.298Z,3.33
2022-12-25T16:15:19.806Z,6.45
2022-12-25T16:17:46.557Z,4.25
2022-12-25T16:20:14.180Z,2.75
2022-12-25T16:22:43.337Z,2.72
2022-12-25T16:25:17.179Z,8.10
2022-12-25T16:27:44.758Z,7.05
2022-12-25T16:30:16.990Z,4.22
2022-12-25T16:32:44.508Z,10.23
2022-12-25T16:35:12.288Z,8.02
2022-12-25T16:37:39.160Z,5.38
2022-12-25T16:40:07.253Z,6.75
2022-12-25T16:42:34.315Z,3.72
2022-12-25T16:45:01.226Z,6.07
2022-12-25T16:47:31.236Z,4.15
2022-12-25T16:49:58.345Z,4.63
2022-12-25T16:52:25.103Z,8.05
2022-12-25T16:54:51.884Z,7.10
2022-12-25T16:57:18.625Z,5.40
2022-12-25T16:59:45.654Z,10.60
2022-12-25T17:02:16.395Z,16.65
2022-12-25T17:04:47.630Z,10.40
2022-12-25T17:07:16.471Z,16.67
2022-12-25T17:09:44.803Z,20.75
2022-12-25T17:12:11.868Z,19.00
2022-12-25T17:14:38.774Z,18.92
2022-12-25T17:17:05.747Z,18.77
2022-12-25T17:19:33.726Z,20.67
2022-12-25T17:22:03.701Z,26.83
2022-12-25T17:24:30.835Z,13.50
2022-12-25T17:26:57.581Z,24.48
2022-12-25T17:29:25.273Z,22.15
2022-12-25T17:31:52.344Z,21.23
2022-12-25T17:34:19.662Z,15.43
2022-12-25T17:36:46.383Z,17.90
2022-12-25T17:39:14.522Z,24.77
2022-12-25T17:41:41.617Z,26.02
2022-12-25T17:44:09.055Z,19.60
2022-12-25T17:46:35.864Z,16.77
2022-12-25T17:49:03.725Z,18.63
2022-12-25T17:51:31.818Z,18.75
2022-12-25T17:54:03.039Z,16.95
2022-12-25T17:56:32.435Z,13.75
2022-12-25T17:59:03.613Z,13.13
2022-12-25T18:01:30.466Z,10.63
2022-12-25T18:03:59.804Z,11.68
2022-12-25T18:06:29.019Z,12.40
2022-12-25T18:08:57.213Z,11.15
2022-12-25T18:11:29.833Z,12.15
2022-12-25T18:14:01.615Z,8.00
2022-12-25T18:16:30.956Z,10.05
2022-12-25T18:18:59.864Z,3.75
2022-12-25T18:21:27.313Z,9.80
2022-12-25T18:23:54.474Z,14.52
2022-12-25T18:26:21.972Z,17.30
2022-12-25T18:28:49.701Z,12.13
2022-12-25T18:31:20.413Z,11.85
2022-12-25T18:33:48.171Z,11.52
2022-12-25T18:36:17.559Z,12.85
2022-12-25T18:38:44.270Z,13.20
2022-12-25T18:41:11.626Z,10.90
2022-12-25T18:43:53.122Z,10.75
2022-12-25T18:46:25.275Z,7.10
2022-12-25T18:48:52.871Z,10.35
2022-12-25T18:51:19.662Z,12.63
2022-12-25T18:53:46.518Z,13.30
2022-12-25T18:56:15.788Z,15.55
2022-12-25T18:58:43.392Z,16.95
2022-12-25T19:01:12.708Z,14.18
2022-12-25T19:03:41.499Z,17.10
2022-12-25T19:06:08.822Z,21.52
2022-12-25T19:08:35.960Z,20.92
2022-12-25T19:11:06.902Z,19.10
2022-12-25T19:13:33.857Z,24.25
2022-12-25T19:16:00.996Z,17.17
2022-12-25T19:18:28.191Z,17.85
2022-12-25T19:20:56.404Z,17.55
2022-12-25T19:23:23.152Z,20.58
2022-12-25T19:25:49.787Z,17.27
2022-12-25T19:28:17.910Z,26.95
2022-12-25T19:30:44.798Z,25.13
2022-12-25T19:33:17.425Z,17.98
2022-12-25T19:35:44.827Z,22.10
2022-12-25T19:38:13.274Z,14.60
2022-12-25T19:40:40.899Z,18.30
2022-12-25T19:43:08.038Z,18.63
2022-12-25T19:45:34.918Z,18.80
2022-12-25T19:48:01.645Z,20.73
2022-12-25T19:50:32.189Z,14.70
2022-12-25T19:52:59.209Z,14.90
2022-12-25T19:55:27.568Z,18.77
2022-12-25T19:57:55.525Z,17.23
2022-12-25T20:00:22.346Z,14.50
2022-12-25T20:02:49.234Z,15.98
2022-12-25T20:05:16.910Z,18.23
2022-12-25T20:07:44.017Z,19.67
2022-12-25T20:10:11.050Z,18.63
2022-12-25T20:12:39.351Z,18.17
2022-12-25T20:15:07.351Z,20.52
2022-12-25T20:17:34.563Z,24.02
2022-12-25T20:20:01.312Z,22.95
2022-12-25T20:22:30.234Z,18.35
2022-12-25T20:24:56.985Z,21.80
2022-12-25T20:27:23.793Z,30.42
2022-12-25T20:29:53.587Z,25.33
2022-12-25T20:32:20.409Z,21.50
2022-12-25T20:34:47.211Z,18.35
2022-12-25T20:37:14.098Z,16.55
2022-12-25T20:39:40.997Z,17.63
2022-12-25T20:42:08.053Z,16.38
2022-12-25T20:44:35.052Z,14.85
2022-12-25T20:47:04.025Z,15.43
2022-12-25T20:49:33.368Z,14.15
2022-12-25T20:52:05.305Z,13.30
2022-12-25T20:54:32.980Z,13.50
2022-12-25T20:56:59.741Z,12.82
2022-12-25T20:59:27.894Z,13.57
2022-12-25T21:01:58.933Z,12.32
2022-12-25T21:04:29.672Z,10.43
2022-12-25T21:06:57.476Z,12.18
2022-12-25T21:09:26.195Z,11.90
2022-12-25T21:11:52.811Z,9.05
2022-12-25T21:14:20.182Z,8.18
2022-12-25T21:16:47.812Z,8.77
2022-12-25T21:19:16.365Z,10.82
2022-12-25T21:21:45.088Z,7.10
2022-12-25T21:24:12.263Z,7.20
2022-12-25T21:26:41.821Z,10.65
2022-12-25T21:29:12.906Z,11.82
2022-12-25T21:32:18.903Z,8.55
2022-12-25T21:34:45.969Z,10.50
2022-12-25T21:37:14.306Z,8.05
2022-12-25T21:39:41.290Z,7.35
2022-12-25T21:42:07.991Z,9.07
2022-12-25T21:44:36.196Z,5.93
2022-12-25T21:47:04.754Z,10.68
2022-12-25T21:49:50.515Z,6.93
2022-12-25T21:52:18.891Z,6.10
2022-12-25T21:54:46.545Z,7.03
2022-12-25T21:57:13.268Z,5.65
2022-12-25T21:59:40.730Z,7.05
2022-12-25T22:02:11.891Z,8.18
2022-12-25T22:04:39.087Z,7.32
2022-12-25T22:07:18.075Z,9.15
2022-12-25T22:09:51.494Z,9.40
2022-12-25T22:12:39.598Z,7.60
2022-12-25T22:15:09.631Z,10.18
2022-12-25T22:17:56.604Z,10.48
2022-12-25T22:20:28.265Z,11.50
2022-12-25T22:22:56.194Z,12.50
2022-12-25T22:25:24.786Z,12.00
2022-12-25T22:27:51.818Z,9.38
2022-12-25T22:30:20.962Z,6.78
2022-12-25T22:32:48.635Z,7.78
2022-12-25T22:35:16.663Z,11.13
2022-12-25T22:37:43.967Z,10.00
2022-12-25T22:40:13.138Z,8.88
2022-12-25T22:42:42.229Z,7.78
2022-12-25T22:45:10.427Z,8.85
2022-12-25T22:47:37.259Z,9.38
2022-12-25T22:50:05.234Z,9.48
2022-12-25T22:52:32.149Z,9.60
2022-12-25T22:54:58.874Z,8.35
2022-12-25T22:57:26.259Z,10.00
2022-12-25T22:59:57.554Z,7.28
2022-12-25T23:02:24.778Z,7.50
2022-12-25T23:04:51.738Z,8.80
2022-12-25T23:07:18.975Z,9.30
2022-12-25T23:09:45.810Z,7.97
2022-12-25T23:12:32.909Z,8.95
2022-12-25T23:15:01.621Z,7.88
2022-12-25T23:17:47.127Z,8.30
2022-12-25T23:20:33.654Z,5.05
2022-12-25T23:23:19.366Z,5.63
2022-12-25T23:26:05.045Z,5.22
2022-12-25T23:28:50.575Z,6.93
2022-12-25T23:31:23.114Z,5.72
2022-12-25T23:33:51.459Z,4.40
2022-12-25T23:36:18.278Z,7.15
2022-12-25T23:38:45.901Z,4.35
2022-12-25T23:41:12.663Z,3.60
2022-12-25T23:43:39.310Z,3.28
2022-12-25T23:46:06.111Z,4.65
2022-12-25T23:48:34.401Z,2.63
2022-12-25T23:51:03.251Z,3.00
2022-12-25T23:53:30.075Z,3.72
2022-12-25T23:55:57.655Z,4.85
2022-12-25T23:58:24.856Z,4.18
